Time;durP1;ratioP1;P1;durP2;ratioP2;P2;SDS_P1;SDS_P2;PMS_P1;PMS_P2;Temp;Humidity;BMP_temperature;BMP_pressure;BME280_temperature;BME280_humidity;BME280_pressure;Samples;Min_cycle;Max_cycle;Signal;HPM_P1;HPM_P2
2021/08/15 00:00:02;;;;;;;13.57;10.00;;;21.30;99.90;;;;;;4993606;28;20722;-60
2021/08/15 00:02:29;;;;;;;11.40;10.30;;;21.30;99.90;;;;;;4995458;28;20721;-59
2021/08/15 00:04:57;;;;;;;10.90;9.80;;;21.30;99.90;;;;;;4998643;28;20515;-61
2021/08/15 00:07:24;;;;;;;11.73;10.53;;;21.20;99.90;;;;;;4997998;28;20613;-60
2021/08/15 00:09:51;;;;;;;11.10;9.90;;;21.20;99.90;;;;;;4998396;28;20469;-60
2021/08/15 00:12:18;;;;;;;11.50;10.43;;;21.00;99.90;;;;;;4999567;28;20415;-62
2021/08/15 00:14:45;;;;;;;10.63;9.53;;;21.00;99.90;;;;;;4998762;28;20817;-60
2021/08/15 00:17:13;;;;;;;10.30;9.23;;;21.00;99.90;;;;;;4998827;28;20509;-60
2021/08/15 00:19:40;;;;;;;11.30;10.00;;;21.00;99.90;;;;;;4990429;28;20454;-61
2021/08/15 00:22:07;;;;;;;10.07;9.07;;;21.00;99.90;;;;;;4999167;28;20440;-60
2021/08/15 00:24:38;;;;;;;13.10;11.47;;;21.00;99.90;;;;;;4990609;28;20492;-59
2021/08/15 00:27:05;;;;;;;10.70;9.50;;;20.90;99.90;;;;;;4998738;28;20423;-61
2021/08/15 00:29:32;;;;;;;12.00;10.30;;;20.80;99.90;;;;;;4998267;28;20510;-61
2021/08/15 00:31:59;;;;;;;11.70;9.67;;;20.70;99.90;;;;;;4998024;28;20466;-60
2021/08/15 00:34:28;;;;;;;11.10;9.30;;;20.70;99.90;;;;;;4998151;28;20485;-61
2021/08/15 00:36:55;;;;;;;10.27;9.37;;;20.60;99.90;;;;;;4998592;28;20414;-60
2021/08/15 00:39:22;;;;;;;11.03;9.77;;;20.50;99.90;;;;;;4998098;28;20465;-60
2021/08/15 00:41:49;;;;;;;12.80;11.50;;;20.50;99.90;;;;;;4997830;28;20434;-60
2021/08/15 00:44:17;;;;;;;11.07;9.93;;;20.40;99.90;;;;;;4997303;28;20762;-60
2021/08/15 00:46:44;;;;;;;9.93;8.93;;;20.40;99.90;;;;;;4998483;28;20450;-60
2021/08/15 00:49:11;;;;;;;14.63;10.40;;;20.30;99.90;;;;;;4998787;28;20663;-60
2021/08/15 00:51:38;;;;;;;12.00;10.90;;;20.30;99.90;;;;;;4998166;28;20415;-60
2021/08/15 00:54:05;;;;;;;10.33;9.13;;;20.30;99.90;;;;;;4998057;28;20438;-60
2021/08/15 00:56:32;;;;;;;12.13;10.00;;;20.30;99.90;;;;;;4994607;28;20499;-59
2021/08/15 00:59:03;;;;;;;11.60;10.13;;;20.20;99.90;;;;;;4993544;28;20410;-61
2021/08/15 01:01:35;;;;;;;10.83;9.33;;;20.20;99.90;;;;;;4998136;28;20464;-60
2021/08/15 01:04:04;;;;;;;11.30;10.10;;;20.20;99.90;;;;;;4997909;28;20481;-61
2021/08/15 01:06:35;;;;;;;9.37;7.97;;;20.00;99.90;;;;;;4997300;28;20479;-59
2021/08/15 01:09:03;;;;;;;13.27;10.77;;;20.00;99.90;;;;;;4997166;28;20431;-61
2021/08/15 01:11:32;;;;;;;11.10;9.80;;;20.00;99.90;;;;;;4991284;28;20503;-61
2021/08/15 01:14:04;;;;;;;11.53;10.13;;;20.00;99.90;;;;;;4999122;28;20414;-61
2021/08/15 01:16:31;;;;;;;11.17;10.03;;;20.00;99.90;;;;;;4988734;28;20624;-61
2021/08/15 01:18:58;;;;;;;12.73;9.50;;;20.00;99.90;;;;;;4996300;28;20648;-61
2021/08/15 01:21:25;;;;;;;13.10;10.57;;;19.90;99.90;;;;;;5003504;28;20759;-61
2021/08/15 01:23:52;;;;;;;11.40;10.30;;;19.90;99.90;;;;;;4992909;28;20787;-60
2021/08/15 01:26:20;;;;;;;10.53;9.47;;;19.90;99.90;;;;;;4984191;28;20549;-60
2021/08/15 01:28:52;;;;;;;11.17;10.10;;;19.80;99.90;;;;;;4988887;28;20481;-59
2021/08/15 01:31:22;;;;;;;12.83;10.53;;;19.70;99.90;;;;;;4993643;28;20750;-60
2021/08/15 01:33:50;;;;;;;12.13;10.00;;;19.70;99.90;;;;;;4997238;28;20740;-59
2021/08/15 01:36:19;;;;;;;10.10;9.07;;;20.00;99.90;;;;;;4984770;28;20438;-60
2021/08/15 01:38:49;;;;;;;14.13;11.10;;;19.60;99.90;;;;;;4986358;28;20682;-61
2021/08/15 01:41:16;;;;;;;12.63;11.43;;;19.70;99.90;;;;;;4997274;28;20604;-61
2021/08/15 01:43:52;;;;;;;12.70;10.33;;;19.70;99.90;;;;;;4996440;28;20410;-61
2021/08/15 01:46:22;;;;;;;12.00;10.10;;;19.70;99.90;;;;;;4997116;28;20450;-60
2021/08/15 01:48:50;;;;;;;12.63;9.93;;;19.70;99.90;;;;;;4998056;28;20429;-61
2021/08/15 01:51:18;;;;;;;11.17;10.00;;;19.70;99.90;;;;;;4997602;28;20783;-60
2021/08/15 01:53:47;;;;;;;10.40;9.23;;;19.70;99.90;;;;;;4996319;28;20687;-61
2021/08/15 01:56:14;;;;;;;13.00;10.60;;;19.70;99.90;;;;;;4996711;28;20435;-59
2021/08/15 01:58:41;;;;;;;11.93;10.77;;;19.50;99.90;;;;;;4996906;28;20579;-61
2021/08/15 02:01:08;;;;;;;12.10;10.83;;;19.50;99.90;;;;;;4998225;28;20440;-60
2021/08/15 02:03:37;;;;;;;12.47;10.53;;;19.40;99.90;;;;;;4996846;28;20440;-60
2021/08/15 02:06:05;;;;;;;12.50;10.57;;;19.40;99.90;;;;;;4998071;28;20490;-60
2021/08/15 02:08:32;;;;;;;14.80;11.80;;;19.00;99.90;;;;;;4998242;28;20615;-60
2021/08/15 02:10:59;;;;;;;14.27;12.10;;;19.00;99.90;;;;;;4997233;28;20486;-61
2021/08/15 02:13:26;;;;;;;14.93;10.90;;;18.90;99.90;;;;;;4996827;28;20498;-60
2021/08/15 02:15:54;;;;;;;16.13;12.10;;;19.00;99.90;;;;;;4996543;28;20731;-60
2021/08/15 02:18:21;;;;;;;15.50;12.43;;;19.00;99.90;;;;;;4996977;28;20717;-60
2021/08/15 02:20:48;;;;;;;16.83;13.87;;;19.10;99.90;;;;;;4997792;28;20728;-60
2021/08/15 02:23:15;;;;;;;20.13;14.20;;;19.10;99.90;;;;;;5001244;28;20435;-60
2021/08/15 02:25:42;;;;;;;18.10;12.00;;;19.10;99.90;;;;;;4999924;28;20851;-60
2021/08/15 02:28:09;;;;;;;14.10;12.50;;;19.10;99.90;;;;;;5001318;28;20523;-61
2021/08/15 02:30:36;;;;;;;16.13;12.67;;;19.10;99.90;;;;;;5001177;28;20576;-59
2021/08/15 02:33:03;;;;;;;19.33;14.07;;;19.00;99.90;;;;;;4999778;28;20457;-59
2021/08/15 02:35:31;;;;;;;14.97;12.30;;;19.00;99.90;;;;;;5000783;28;20513;-61
2021/08/15 02:37:59;;;;;;;16.63;12.97;;;19.00;99.90;;;;;;5000614;28;20731;-60
2021/08/15 02:40:27;;;;;;;17.53;13.80;;;18.90;99.90;;;;;;4989942;28;20448;-61
2021/08/15 02:42:55;;;;;;;22.00;13.80;;;19.00;99.90;;;;;;4995337;28;20570;-61
2021/08/15 02:45:25;;;;;;;20.37;12.80;;;19.00;99.90;;;;;;4989787;28;20491;-59
2021/08/15 02:47:53;;;;;;;15.73;12.37;;;18.90;99.90;;;;;;5000218;28;20414;-60
2021/08/15 02:50:22;;;;;;;18.07;12.87;;;18.90;99.90;;;;;;5000305;28;20471;-61
2021/08/15 02:52:49;;;;;;;18.10;12.40;;;18.90;99.90;;;;;;5000165;28;20472;-60
2021/08/15 02:55:16;;;;;;;14.30;12.17;;;18.80;99.90;;;;;;4994354;28;20711;-60
2021/08/15 02:57:43;;;;;;;13.47;12.07;;;19.10;99.90;;;;;;4993416;28;20511;-60
2021/08/15 03:00:12;;;;;;;14.37;12.37;;;18.70;99.90;;;;;;4996245;28;20797;-60
2021/08/15 03:02:40;;;;;;;17.03;12.93;;;18.60;99.90;;;;;;4992098;28;20443;-61
2021/08/15 03:05:09;;;;;;;14.67;12.83;;;18.70;99.90;;;;;;4999606;28;20493;-61
2021/08/15 03:07:36;;;;;;;13.20;11.90;;;18.70;99.90;;;;;;5000023;28;20501;-60
2021/08/15 03:10:08;;;;;;;16.50;12.37;;;18.70;99.90;;;;;;4999799;28;20454;-60
2021/08/15 03:12:36;;;;;;;12.80;10.33;;;18.60;99.90;;;;;;4999713;28;20757;-61
2021/08/15 03:15:05;;;;;;;11.07;9.93;;;18.60;99.90;;;;;;4999954;28;20446;-61
2021/08/15 03:17:32;;;;;;;13.40;12.10;;;18.60;99.90;;;;;;5031162;28;20803;-61
2021/08/15 03:19:59;;;;;;;13.37;11.97;;;18.50;99.90;;;;;;4999664;28;20648;-61
2021/08/15 03:22:26;;;;;;;19.80;11.90;;;18.50;99.90;;;;;;4994355;28;20487;-60
2021/08/15 03:24:53;;;;;;;13.00;11.67;;;18.50;99.90;;;;;;4981905;28;20454;-61
2021/08/15 03:27:20;;;;;;;13.10;11.77;;;18.40;99.90;;;;;;4998585;28;20456;-60
2021/08/15 03:29:47;;;;;;;13.93;11.27;;;18.40;99.90;;;;;;4999774;28;20433;-60
2021/08/15 03:32:14;;;;;;;13.27;11.87;;;18.50;99.90;;;;;;4985740;28;20413;-60
2021/08/15 03:34:41;;;;;;;15.20;13.20;;;18.50;99.90;;;;;;4999381;28;20414;-59
2021/08/15 03:37:08;;;;;;;11.80;10.50;;;18.50;99.90;;;;;;4999406;28;20509;-59
2021/08/15 03:39:35;;;;;;;15.40;12.80;;;18.50;99.90;;;;;;4985703;28;20486;-59
2021/08/15 03:42:02;;;;;;;13.50;11.50;;;18.60;99.90;;;;;;5014104;28;20417;-61
2021/08/15 03:44:31;;;;;;;12.57;11.37;;;18.60;99.90;;;;;;4984857;28;20501;-61
2021/08/15 03:46:59;;;;;;;14.10;12.70;;;18.60;99.90;;;;;;4999169;28;20501;-60
2021/08/15 03:49:27;;;;;;;14.20;11.77;;;18.50;99.90;;;;;;4998756;28;20417;-60
2021/08/15 03:51:57;;;;;;;18.10;13.50;;;18.50;99.90;;;;;;4986390;28;20438;-60
2021/08/15 03:54:25;;;;;;;13.03;11.77;;;18.50;99.90;;;;;;4986772;28;20458;-60
2021/08/15 03:56:52;;;;;;;13.37;11.67;;;18.50;99.90;;;;;;4998976;28;20444;-59
2021/08/15 03:59:21;;;;;;;20.63;11.57;;;18.50;99.90;;;;;;4987326;28;20769;-59
2021/08/15 04:01:49;;;;;;;15.33;12.40;;;18.50;99.90;;;;;;4997942;28;20720;-60
2021/08/15 04:04:16;;;;;;;13.47;12.07;;;18.50;99.90;;;;;;4998674;28;20506;-60
2021/08/15 04:06:43;;;;;;;15.30;12.43;;;18.70;99.90;;;;;;4986817;28;20510;-61
2021/08/15 04:09:11;;;;;;;19.90;12.10;;;18.60;99.90;;;;;;5009451;28;20481;-61
2021/08/15 04:11:39;;;;;;;13.60;11.20;;;18.50;99.90;;;;;;4986054;28;20418;-59
2021/08/15 04:14:07;;;;;;;12.37;11.03;;;18.50;99.90;;;;;;5004460;28;20749;-60
2021/08/15 04:16:35;;;;;;;12.90;11.60;;;18.70;99.90;;;;;;4992880;28;20447;-61
2021/08/15 04:19:02;;;;;;;13.03;11.73;;;18.80;99.90;;;;;;4993447;28;20533;-59
2021/08/15 04:21:29;;;;;;;14.63;12.53;;;18.60;99.90;;;;;;4991367;28;20414;-60
2021/08/15 04:23:56;;;;;;;13.77;12.07;;;18.80;99.90;;;;;;5011208;28;20462;-61
2021/08/15 04:26:24;;;;;;;14.40;13.00;;;18.80;99.90;;;;;;5008200;28;20487;-60
2021/08/15 04:28:51;;;;;;;14.30;11.67;;;19.00;99.90;;;;;;4999559;28;20459;-59
2021/08/15 04:31:18;;;;;;;16.27;10.10;;;19.00;99.90;;;;;;5006416;28;20416;-59
2021/08/15 04:33:45;;;;;;;12.37;11.17;;;19.00;99.90;;;;;;5005200;28;20447;-60
2021/08/15 04:36:12;;;;;;;15.33;12.27;;;19.00;99.90;;;;;;4997832;28;20784;-59
2021/08/15 04:38:39;;;;;;;13.27;12.00;;;19.00;99.90;;;;;;4989198;28;20507;-60
2021/08/15 04:41:06;;;;;;;14.33;12.77;;;19.20;99.90;;;;;;4994114;28;20443;-59
2021/08/15 04:43:33;;;;;;;13.73;12.33;;;19.30;99.90;;;;;;4997295;28;20485;-60
2021/08/15 04:46:01;;;;;;;13.37;11.50;;;19.40;99.90;;;;;;4997478;28;20577;-60
2021/08/15 04:48:28;;;;;;;13.60;11.90;;;19.40;99.90;;;;;;4985448;28;20493;-60
2021/08/15 04:50:56;;;;;;;14.10;12.03;;;19.50;99.90;;;;;;4998468;28;20448;-60
2021/08/15 04:53:23;;;;;;;15.23;12.53;;;19.30;99.90;;;;;;4985361;28;20418;-60
2021/08/15 04:55:50;;;;;;;16.70;13.00;;;19.10;99.90;;;;;;4998620;28;20413;-60
2021/08/15 04:58:17;;;;;;;15.73;13.83;;;19.10;99.90;;;;;;4997361;28;20872;-60
2021/08/15 05:00:44;;;;;;;16.30;13.67;;;19.10;99.90;;;;;;5007235;28;20664;-60
2021/08/15 05:03:15;;;;;;;13.67;11.67;;;19.30;99.90;;;;;;5014792;28;20740;-60
2021/08/15 05:05:43;;;;;;;14.97;13.47;;;19.40;99.90;;;;;;5009305;28;20662;-59
2021/08/15 05:08:11;;;;;;;15.20;13.23;;;19.40;99.90;;;;;;5010762;28;20442;-59
2021/08/15 05:10:41;;;;;;;17.03;11.87;;;19.40;99.90;;;;;;4979402;28;20475;-60
2021/08/15 05:13:08;;;;;;;13.90;12.50;;;19.60;99.90;;;;;;4991629;28;20517;-60
2021/08/15 05:15:35;;;;;;;14.23;12.50;;;19.80;99.90;;;;;;5001460;28;20638;-61
2021/08/15 05:18:02;;;;;;;13.77;12.37;;;20.10;99.90;;;;;;5016466;28;20461;-61
2021/08/15 05:20:31;;;;;;;11.90;10.73;;;19.90;99.90;;;;;;5014608;28;20420;-60
2021/08/15 05:22:58;;;;;;;13.23;11.07;;;19.90;99.90;;;;;;5006861;28;20414;-61
2021/08/15 05:25:26;;;;;;;12.13;10.90;;;19.90;99.90;;;;;;4995785;28;20654;-60
2021/08/15 05:27:53;;;;;;;17.60;12.10;;;20.20;99.90;;;;;;4987171;28;20410;-60
2021/08/15 05:30:20;;;;;;;13.07;11.30;;;20.40;99.90;;;;;;5009483;28;20433;-61
2021/08/15 05:32:47;;;;;;;12.63;9.73;;;20.60;99.90;;;;;;4985521;28;20415;-60
2021/08/15 05:35:14;;;;;;;10.60;9.60;;;20.90;99.90;;;;;;4997163;28;20474;-60
2021/08/15 05:37:44;;;;;;;9.80;8.80;;;21.20;99.90;;;;;;4997158;28;20497;-61
2021/08/15 05:40:11;;;;;;;9.40;8.47;;;21.30;99.90;;;;;;4996324;28;20549;-61
2021/08/15 05:42:38;;;;;;;10.07;9.10;;;21.40;99.90;;;;;;4996029;28;20463;-59
2021/08/15 05:45:06;;;;;;;10.23;8.73;;;21.60;99.90;;;;;;4989921;28;20458;-60
2021/08/15 05:47:33;;;;;;;9.73;8.73;;;21.90;99.90;;;;;;5015100;28;20557;-59
2021/08/15 05:50:00;;;;;;;15.30;10.40;;;22.10;99.90;;;;;;5009404;28;20594;-61
2021/08/15 05:52:27;;;;;;;9.57;8.73;;;22.00;99.90;;;;;;5007216;28;20601;-61
2021/08/15 05:54:54;;;;;;;9.10;8.30;;;22.20;99.90;;;;;;4999824;28;20434;-61
2021/08/15 05:57:21;;;;;;;11.90;9.37;;;22.40;99.90;;;;;;5018305;28;20424;-61
2021/08/15 05:59:48;;;;;;;11.97;9.43;;;22.50;99.90;;;;;;5014963;28;20445;-60
2021/08/15 06:02:15;;;;;;;9.20;8.37;;;22.80;99.90;;;;;;4988792;28;20406;-60
2021/08/15 06:04:42;;;;;;;10.30;9.30;;;23.00;99.90;;;;;;4987777;28;20445;-60
2021/08/15 06:07:11;;;;;;;8.40;7.60;;;23.30;99.90;;;;;;5018677;28;20445;-60
2021/08/15 06:09:38;;;;;;;10.53;7.77;;;24.00;99.90;;;;;;5007848;28;20409;-60
2021/08/15 06:12:05;;;;;;;10.30;9.30;;;24.80;99.90;;;;;;4987973;28;20463;-60
2021/08/15 06:14:33;;;;;;;10.30;9.40;;;25.10;99.90;;;;;;4990435;28;20440;-60
2021/08/15 06:17:01;;;;;;;9.20;8.40;;;25.60;99.90;;;;;;5013213;28;20757;-59
2021/08/15 06:19:28;;;;;;;10.03;8.77;;;26.00;99.90;;;;;;5018010;28;20698;-61
2021/08/15 06:21:56;;;;;;;9.83;9.03;;;26.50;99.90;;;;;;5016040;28;20501;-60
2021/08/15 06:24:23;;;;;;;11.10;10.03;;;27.00;99.90;;;;;;5000026;28;20415;-59
2021/08/15 06:26:50;;;;;;;10.07;9.27;;;27.60;99.90;;;;;;4998644;28;20477;-60
2021/08/15 06:29:17;;;;;;;10.13;9.23;;;28.50;98.70;;;;;;5026725;28;20530;-59
2021/08/15 06:31:44;;;;;;;13.63;9.30;;;28.90;96.90;;;;;;4988776;28;20440;-60
2021/08/15 06:34:11;;;;;;;10.47;9.77;;;29.80;95.50;;;;;;5002186;28;20463;-61
2021/08/15 06:36:38;;;;;;;10.10;9.40;;;30.70;93.60;;;;;;4993090;28;20445;-58
2021/08/15 06:39:05;;;;;;;12.57;11.67;;;31.50;91.20;;;;;;4981041;28;20718;-62
2021/08/15 06:41:35;;;;;;;12.00;11.10;;;32.70;88.10;;;;;;4999390;28;20435;-60
2021/08/15 06:44:02;;;;;;;12.33;11.50;;;33.50;84.90;;;;;;4989356;28;20503;-61
2021/08/15 06:46:29;;;;;;;13.20;12.10;;;33.90;83.60;;;;;;4995094;28;20485;-60
2021/08/15 06:48:56;;;;;;;12.13;11.43;;;35.10;79.70;;;;;;4991142;28;20526;-59
2021/08/15 06:51:23;;;;;;;13.53;12.40;;;36.10;75.20;;;;;;4997655;28;20447;-60
2021/08/15 06:53:51;;;;;;;13.90;12.90;;;36.10;73.50;;;;;;4989008;28;20447;-60
2021/08/15 06:56:18;;;;;;;13.37;12.27;;;36.60;72.20;;;;;;4986568;28;20472;-59
2021/08/15 06:58:45;;;;;;;14.63;13.70;;;36.90;70.20;;;;;;5000563;28;20481;-60
2021/08/15 07:01:13;;;;;;;12.77;11.80;;;36.90;68.90;;;;;;5011778;28;20438;-60
2021/08/15 07:03:40;;;;;;;12.83;11.83;;;37.80;67.70;;;;;;4999510;28;20697;-61
2021/08/15 07:06:07;;;;;;;13.30;12.40;;;37.60;64.20;;;;;;5000026;28;20542;-59
2021/08/15 07:08:34;;;;;;;13.27;12.57;;;38.10;63.30;;;;;;4985557;28;20439;-62
2021/08/15 07:11:01;;;;;;;13.53;12.60;;;38.40;61.60;;;;;;4999711;28;20616;-60
2021/08/15 07:13:28;;;;;;;12.40;11.50;;;38.80;60.30;;;;;;4997792;28;20439;-60
2021/08/15 07:15:55;;;;;;;13.83;12.93;;;39.50;58.60;;;;;;4981771;28;20440;-60
2021/08/15 07:18:22;;;;;;;12.97;12.23;;;40.00;57.10;;;;;;4994433;28;20668;-60
2021/08/15 07:20:53;;;;;;;12.97;12.20;;;39.70;56.70;;;;;;4993884;28;20647;-60
2021/08/15 07:23:21;;;;;;;13.57;12.70;;;39.90;56.00;;;;;;4999026;28;20472;-60
2021/08/15 07:25:48;;;;;;;13.57;12.87;;;40.00;55.70;;;;;;4999123;28;20485;-60
2021/08/15 07:28:15;;;;;;;13.83;13.03;;;40.70;53.90;;;;;;4998750;28;20790;-60
2021/08/15 07:30:42;;;;;;;12.93;12.23;;;40.80;54.20;;;;;;5011085;28;20757;-61
2021/08/15 07:33:09;;;;;;;13.23;12.33;;;41.40;52.50;;;;;;4999122;28;20630;-60
2021/08/15 07:35:37;;;;;;;12.70;12.00;;;41.00;51.90;;;;;;4999208;28;20440;-60
2021/08/15 07:38:06;;;;;;;13.53;12.07;;;41.60;51.20;;;;;;4998733;28;20478;-60
2021/08/15 07:40:33;;;;;;;12.50;11.70;;;42.00;50.70;;;;;;4987508;28;20797;-60
2021/08/15 07:43:01;;;;;;;12.13;11.47;;;41.90;50.30;;;;;;4980343;28;20758;-61
2021/08/15 07:45:31;;;;;;;12.60;11.80;;;41.90;50.30;;;;;;4989025;28;20804;-61
2021/08/15 07:48:00;;;;;;;13.57;12.87;;;42.30;50.10;;;;;;4998278;28;20796;-60
2021/08/15 07:50:29;;;;;;;13.00;12.30;;;42.10;49.60;;;;;;4991543;28;20444;-61
2021/08/15 07:52:56;;;;;;;13.43;12.57;;;42.70;48.30;;;;;;4993601;28;20439;-60
2021/08/15 07:55:23;;;;;;;12.90;12.20;;;43.50;47.00;;;;;;4980350;28;20762;-60
2021/08/15 07:57:50;;;;;;;12.13;11.33;;;43.40;45.50;;;;;;4992643;28;20452;-60
2021/08/15 08:00:17;;;;;;;12.93;12.23;;;42.40;46.70;;;;;;4998348;28;20443;-59
2021/08/15 08:02:45;;;;;;;12.67;12.07;;;41.20;47.60;;;;;;4987998;28;20440;-60
2021/08/15 08:05:12;;;;;;;13.57;12.77;;;40.90;49.00;;;;;;4996412;28;20566;-60
2021/08/15 08:07:39;;;;;;;13.60;12.90;;;42.70;46.70;;;;;;4998487;28;20509;-60
2021/08/15 08:10:07;;;;;;;13.50;12.80;;;43.20;46.10;;;;;;4985597;28;20757;-60
2021/08/15 08:12:34;;;;;;;12.23;11.63;;;44.40;44.90;;;;;;4998366;28;20705;-60
2021/08/15 08:15:02;;;;;;;13.40;12.60;;;44.00;44.50;;;;;;4998117;28;20440;-61
2021/08/15 08:17:29;;;;;;;12.90;12.30;;;45.10;42.80;;;;;;4992429;28;20443;-60
2021/08/15 08:19:56;;;;;;;12.70;12.00;;;44.60;43.10;;;;;;4992619;28;20600;-60
2021/08/15 08:22:23;;;;;;;12.80;12.20;;;44.00;43.80;;;;;;4996703;28;20584;-60
2021/08/15 08:24:50;;;;;;;12.03;11.33;;;44.40;42.80;;;;;;5009882;28;20475;-60
2021/08/15 08:27:18;;;;;;;12.40;11.80;;;43.50;43.60;;;;;;4983671;28;20476;-60
2021/08/15 08:29:45;;;;;;;12.00;11.13;;;43.20;44.00;;;;;;5007380;28;20488;-60
2021/08/15 08:32:12;;;;;;;13.13;12.23;;;42.00;44.70;;;;;;5002130;28;20692;-60
2021/08/15 08:34:39;;;;;;;12.00;11.50;;;41.50;45.30;;;;;;4998801;28;20805;-60
2021/08/15 08:37:06;;;;;;;11.63;11.13;;;41.60;44.90;;;;;;4998351;28;20443;-60
2021/08/15 08:39:34;;;;;;;13.30;12.60;;;42.70;44.70;;;;;;4997933;28;20495;-61
2021/08/15 08:42:04;;;;;;;14.03;13.30;;;42.80;43.90;;;;;;4997861;28;20451;-62
2021/08/15 08:44:34;;;;;;;12.97;12.27;;;43.60;43.40;;;;;;4996485;28;20442;-61
2021/08/15 08:47:04;;;;;;;14.03;13.00;;;43.40;42.70;;;;;;4990590;28;20806;-61
2021/08/15 08:49:32;;;;;;;13.40;12.70;;;43.30;43.60;;;;;;4993208;28;20701;-61
2021/08/15 08:52:00;;;;;;;12.20;11.50;;;43.60;42.70;;;;;;5009865;28;20440;-60
2021/08/15 08:54:29;;;;;;;12.60;11.90;;;43.30;42.60;;;;;;4997633;28;20514;-61
2021/08/15 08:56:57;;;;;;;12.60;12.00;;;42.70;43.40;;;;;;5004112;28;20448;-60
2021/08/15 08:59:24;;;;;;;13.20;12.50;;;43.10;42.80;;;;;;4989477;28;20439;-61
2021/08/15 09:01:52;;;;;;;13.77;12.77;;;43.50;43.20;;;;;;4997562;28;20440;-60
2021/08/15 09:04:19;;;;;;;12.83;12.20;;;44.30;41.80;;;;;;4997670;28;20440;-61
2021/08/15 09:06:46;;;;;;;12.97;12.27;;;45.00;40.90;;;;;;4997459;28;20490;-62
2021/08/15 09:09:16;;;;;;;13.50;12.80;;;44.80;40.90;;;;;;4997509;28;20440;-61
2021/08/15 09:11:46;;;;;;;12.57;11.87;;;44.70;40.40;;;;;;4997466;28;20440;-60
2021/08/15 09:14:19;;;;;;;12.53;11.87;;;44.10;41.50;;;;;;4989890;28;20497;-62
2021/08/15 09:16:55;;;;;;;12.67;12.07;;;44.00;41.10;;;;;;4992774;28;20480;-61
2021/08/15 09:19:23;;;;;;;13.13;12.53;;;42.10;43.40;;;;;;4997347;28;20502;-60
2021/08/15 09:21:50;;;;;;;12.50;11.70;;;41.80;43.60;;;;;;4996542;28;20721;-61
2021/08/15 09:24:17;;;;;;;11.67;11.07;;;41.90;43.90;;;;;;4985473;28;20490;-61
2021/08/15 09:27:07;;;;;;;12.63;12.03;;;41.40;44.20;;;;;;4996934;28;20665;-61
2021/08/15 09:29:34;;;;;;;11.40;10.80;;;39.40;46.60;;;;;;4996980;28;20459;-60
2021/08/15 09:32:02;;;;;;;13.30;12.10;;;38.60;48.50;;;;;;4996087;28;20757;-62
2021/08/15 09:34:29;;;;;;;10.30;9.80;;;36.90;50.80;;;;;;4996423;28;20447;-60
2021/08/15 09:36:56;;;;;;;11.73;11.03;;;35.40;53.60;;;;;;4994688;28;20510;-60
2021/08/15 09:39:31;;;;;;;12.47;11.40;;;34.80;55.80;;;;;;4999564;28;20439;-61
2021/08/15 09:41:59;;;;;;;10.30;9.77;;;33.90;57.00;;;;;;4997493;28;20556;-61
2021/08/15 09:44:30;;;;;;;11.33;10.43;;;33.30;57.60;;;;;;4997224;28;20662;-60
2021/08/15 09:47:05;;;;;;;10.80;10.20;;;32.80;58.30;;;;;;4997207;28;20835;-61
2021/08/15 09:49:47;;;;;;;10.90;10.20;;;32.20;59.60;;;;;;4996576;28;20442;-62
2021/08/15 09:52:18;;;;;;;10.20;9.37;;;31.60;60.60;;;;;;4997025;28;20639;-60
2021/08/15 09:54:56;;;;;;;9.47;8.77;;;31.40;61.40;;;;;;4998338;28;20431;-60
2021/08/15 09:57:36;;;;;;;10.13;9.40;;;31.30;62.60;;;;;;5006641;28;20517;-61
2021/08/15 10:00:05;;;;;;;8.73;8.23;;;31.00;63.20;;;;;;4996805;28;20673;-60
2021/08/15 10:02:33;;;;;;;8.63;8.13;;;31.00;64.60;;;;;;5011838;28;20446;-60
2021/08/15 10:05:00;;;;;;;9.70;9.13;;;31.00;63.50;;;;;;4984074;28;20482;-60
2021/08/15 10:07:29;;;;;;;8.70;8.10;;;31.10;63.60;;;;;;5011863;28;20482;-61
2021/08/15 10:09:57;;;;;;;9.90;9.20;;;31.10;64.00;;;;;;4996869;28;20469;-61
2021/08/15 10:12:24;;;;;;;8.57;8.07;;;31.00;63.30;;;;;;4990637;28;20447;-61
2021/08/15 10:14:51;;;;;;;8.37;7.87;;;30.40;63.70;;;;;;4991263;28;20835;-60
2021/08/15 10:17:20;;;;;;;8.47;7.90;;;30.20;65.80;;;;;;4996436;28;20446;-60
2021/08/15 10:19:57;;;;;;;10.17;9.20;;;30.40;65.30;;;;;;4997091;28;20492;-60
2021/08/15 10:22:30;;;;;;;8.73;7.90;;;30.50;64.30;;;;;;4996631;28;20476;-60
2021/08/15 10:24:59;;;;;;;11.73;9.07;;;30.60;63.30;;;;;;5008605;28;20467;-60
2021/08/15 10:27:42;;;;;;;10.20;8.03;;;30.70;65.10;;;;;;4996520;28;20481;-60
2021/08/15 10:30:13;;;;;;;15.00;14.00;;;31.00;63.60;;;;;;4997514;28;20452;-60
2021/08/15 10:32:55;;;;;;;9.40;8.80;;;31.20;62.90;;;;;;5008639;28;20434;-61
2021/08/15 10:35:26;;;;;;;8.93;8.37;;;31.20;62.30;;;;;;4996878;28;20709;-60
2021/08/15 10:38:00;;;;;;;8.70;8.13;;;31.40;62.10;;;;;;4996811;28;20504;-61
2021/08/15 10:40:39;;;;;;;8.20;7.80;;;31.20;61.30;;;;;;4996120;28;20438;-60
2021/08/15 10:43:31;;;;;;;8.37;7.93;;;31.20;61.00;;;;;;4997056;28;20444;-60
2021/08/15 10:46:08;;;;;;;8.80;8.20;;;31.10;62.50;;;;;;4990279;28;20776;-60
2021/08/15 10:49:00;;;;;;;8.20;7.80;;;30.80;64.00;;;;;;4999873;28;20582;-61
2021/08/15 10:51:44;;;;;;;8.40;7.80;;;30.60;64.10;;;;;;5017923;28;20433;-60
2021/08/15 10:54:26;;;;;;;7.77;7.37;;;30.20;64.20;;;;;;5000490;28;20445;-59
2021/08/15 10:56:59;;;;;;;9.33;8.63;;;30.00;65.50;;;;;;4987266;28;20629;-60
2021/08/15 10:59:36;;;;;;;8.73;8.00;;;29.80;67.10;;;;;;4998911;28;20410;-61
2021/08/15 11:02:13;;;;;;;8.80;8.10;;;29.90;67.10;;;;;;4993941;28;20433;-62
2021/08/15 11:04:56;;;;;;;9.03;8.43;;;29.90;66.30;;;;;;4994324;28;20742;-59
2021/08/15 11:07:37;;;;;;;8.37;7.67;;;29.80;66.20;;;;;;4988684;28;20673;-59
2021/08/15 11:10:07;;;;;;;8.47;7.87;;;29.70;66.20;;;;;;4985653;28;20433;-60
2021/08/15 11:12:34;;;;;;;7.60;7.00;;;29.10;67.60;;;;;;4989176;28;20581;-60
2021/08/15 11:15:10;;;;;;;7.60;7.03;;;28.80;67.30;;;;;;4999482;28;20444;-60
2021/08/15 11:17:39;;;;;;;7.00;6.60;;;28.60;67.60;;;;;;5007514;28;20437;-62
2021/08/15 11:20:32;;;;;;;7.37;6.97;;;28.60;67.90;;;;;;5045817;28;20505;-62
2021/08/15 11:23:16;;;;;;;8.13;7.60;;;28.90;67.60;;;;;;5008813;28;20408;-60
2021/08/15 11:25:45;;;;;;;7.87;7.27;;;29.00;67.00;;;;;;4991245;28;20473;-61
2021/08/15 11:28:15;;;;;;;8.40;7.80;;;28.90;67.60;;;;;;5004110;28;20483;-60
2021/08/15 11:30:43;;;;;;;7.77;7.27;;;29.20;64.30;;;;;;4999535;28;20654;-59
2021/08/15 11:33:11;;;;;;;6.90;6.60;;;29.40;64.70;;;;;;4999263;28;20502;-60
2021/08/15 11:35:43;;;;;;;9.00;8.20;;;29.70;64.30;;;;;;4999482;28;20504;-60
2021/08/15 11:38:12;;;;;;;8.73;7.93;;;29.90;63.60;;;;;;4979959;28;20455;-60
2021/08/15 11:40:51;;;;;;;7.17;6.77;;;30.10;63.10;;;;;;4992128;28;20444;-60
2021/08/15 11:43:27;;;;;;;7.93;7.53;;;30.30;61.70;;;;;;4980988;28;20483;-59
2021/08/15 11:45:56;;;;;;;7.63;7.13;;;30.30;61.10;;;;;;4993126;28;20450;-59
2021/08/15 11:48:28;;;;;;;9.60;9.10;;;30.20;62.30;;;;;;4997340;28;20463;-61
2021/08/15 11:51:01;;;;;;;9.63;8.93;;;30.10;62.10;;;;;;4999010;28;20440;-60
2021/08/15 11:53:35;;;;;;;8.63;8.13;;;30.20;63.10;;;;;;4997689;28;20514;-59
2021/08/15 11:56:21;;;;;;;8.20;7.47;;;30.60;62.20;;;;;;4987784;28;20442;-59
2021/08/15 11:58:56;;;;;;;8.00;7.50;;;30.80;61.40;;;;;;4998960;28;20450;-62
2021/08/15 12:01:25;;;;;;;8.40;8.00;;;30.70;60.90;;;;;;4998515;28;20429;-61
2021/08/15 12:04:02;;;;;;;7.80;7.50;;;30.60;61.70;;;;;;4986468;28;20412;-59
2021/08/15 12:06:30;;;;;;;7.80;7.30;;;30.50;61.40;;;;;;4998610;28;20635;-60
2021/08/15 12:08:58;;;;;;;8.57;8.07;;;30.10;61.80;;;;;;4992312;28;20472;-60
2021/08/15 12:11:26;;;;;;;8.00;7.50;;;29.80;63.90;;;;;;5003304;28;20740;-60
2021/08/15 12:14:07;;;;;;;9.27;7.30;;;30.00;64.40;;;;;;5014984;28;20494;-60
2021/08/15 12:16:35;;;;;;;8.10;7.70;;;30.20;63.60;;;;;;4991649;28;20449;-60
2021/08/15 12:19:05;;;;;;;7.83;7.43;;;30.30;62.20;;;;;;4992446;28;20444;-60
2021/08/15 12:21:34;;;;;;;8.30;7.80;;;30.60;62.30;;;;;;5002684;28;20440;-60
2021/08/15 12:24:10;;;;;;;8.60;7.90;;;31.00;61.40;;;;;;4997791;28;20458;-60
2021/08/15 12:26:40;;;;;;;7.77;7.37;;;31.20;61.60;;;;;;4987093;28;20440;-59
2021/08/15 12:29:22;;;;;;;8.17;7.67;;;31.40;61.40;;;;;;5001286;28;20489;-60
2021/08/15 12:32:15;;;;;;;7.90;7.30;;;31.70;61.70;;;;;;5004422;28;20428;-59
2021/08/15 12:34:44;;;;;;;8.77;8.17;;;32.00;60.00;;;;;;4984711;28;20469;-60
2021/08/15 12:37:16;;;;;;;8.93;8.27;;;32.00;59.50;;;;;;4997961;28;20435;-60
2021/08/15 12:39:44;;;;;;;8.97;8.10;;;31.90;60.20;;;;;;4998034;28;20696;-61
2021/08/15 12:42:13;;;;;;;8.23;7.77;;;32.10;60.00;;;;;;4998454;28;20619;-60